createdAt,value
2022-11-26T00:02:18.962Z,6.65
2022-11-26T00:05:07.756Z,6.05
2022-11-26T00:07:57.651Z,6.57
2022-11-26T00:10:45.597Z,6.13
2022-11-26T00:13:34.780Z,5.72
2022-11-26T00:16:22.809Z,6.10
2022-11-26T00:19:10.914Z,6.03
2022-11-26T00:21:58.866Z,5.47
2022-11-26T00:24:46.586Z,15.13
2022-11-26T00:27:34.741Z,9.73
2022-11-26T00:30:26.264Z,9.57
2022-11-26T00:33:14.334Z,10.55
2022-11-26T00:36:05.447Z,10.40
2022-11-26T00:38:56.226Z,10.68
2022-11-26T00:41:46.894Z,10.23
2022-11-26T00:44:34.726Z,10.68
2022-11-26T00:47:23.946Z,9.70
2022-11-26T00:50:16.530Z,9.50
2022-11-26T00:53:05.460Z,9.65
2022-11-26T00:55:53.639Z,9.45
2022-11-26T00:58:41.375Z,8.13
2022-11-26T01:01:29.722Z,8.63
2022-11-26T01:04:18.662Z,8.63
2022-11-26T01:07:06.663Z,7.68
2022-11-26T01:09:54.567Z,8.27
2022-11-26T01:12:42.418Z,9.20
2022-11-26T01:15:30.459Z,8.30
2022-11-26T01:18:20.754Z,8.13
2022-11-26T01:21:11.319Z,8.13
2022-11-26T01:23:59.201Z,8.00
2022-11-26T01:26:46.819Z,7.72
2022-11-26T01:29:34.838Z,8.13
2022-11-26T01:32:28.022Z,7.55
2022-11-26T01:35:18.021Z,7.47
2022-11-26T01:38:07.665Z,7.25
2022-11-26T01:41:08.971Z,7.97
2022-11-26T01:43:59.480Z,7.22
2022-11-26T01:46:47.481Z,7.15
2022-11-26T01:49:36.924Z,7.30
2022-11-26T01:52:27.555Z,6.57
2022-11-26T01:55:18.762Z,7.03
2022-11-26T01:58:10.359Z,7.15
2022-11-26T02:00:59.003Z,6.80
2022-11-26T02:03:55.746Z,7.10
2022-11-26T02:06:45.938Z,7.05
2022-11-26T02:09:33.930Z,6.28
2022-11-26T02:12:23.485Z,6.93
2022-11-26T02:15:15.480Z,7.00
2022-11-26T02:18:08.380Z,6.38
2022-11-26T02:21:04.271Z,6.35
2022-11-26T02:24:32.767Z,5.95
2022-11-26T02:27:54.163Z,5.90
2022-11-26T02:30:51.293Z,6.05
2022-11-26T02:33:53.239Z,6.18
2022-11-26T02:37:08.253Z,5.72
2022-11-26T02:39:59.961Z,5.45
2022-11-26T02:42:50.025Z,5.50
2022-11-26T02:45:45.275Z,5.55
2022-11-26T02:48:40.333Z,4.78
2022-11-26T02:51:53.539Z,4.43
2022-11-26T02:54:51.645Z,5.07
2022-11-26T02:58:02.086Z,4.78
2022-11-26T03:00:54.673Z,4.50
2022-11-26T03:07:37.814Z,4.43
2022-11-26T03:10:35.716Z,4.30
2022-11-26T03:13:23.635Z,4.22
2022-11-26T03:16:17.385Z,4.90
2022-11-26T03:19:34.350Z,4.47
2022-11-26T03:25:30.511Z,4.60
2022-11-26T03:28:24.749Z,4.30
2022-11-26T03:31:28.664Z,4.22
2022-11-26T03:34:30.166Z,4.47
2022-11-26T03:40:26.091Z,4.00
2022-11-26T03:43:15.211Z,4.50
2022-11-26T03:46:07.320Z,4.82
2022-11-26T03:49:00.173Z,4.00
2022-11-26T03:51:56.080Z,4.65
2022-11-26T03:55:07.762Z,4.05
2022-11-26T03:58:00.232Z,4.45
2022-11-26T04:00:54.963Z,4.15
2022-11-26T04:03:45.611Z,4.10
2022-11-26T04:06:44.562Z,4.28
2022-11-26T04:09:40.021Z,4.45
2022-11-26T04:12:27.906Z,5.32
2022-11-26T04:15:22.153Z,4.70
2022-11-26T04:18:09.811Z,5.38
2022-11-26T04:20:57.826Z,4.72
2022-11-26T04:23:45.759Z,4.82
2022-11-26T04:26:39.526Z,4.72
2022-11-26T04:29:31.332Z,5.03
2022-11-26T04:32:26.900Z,5.50
2022-11-26T04:35:23.302Z,4.90
2022-11-26T04:38:11.924Z,4.93
2022-11-26T04:41:18.845Z,4.78
2022-11-26T04:44:14.623Z,4.93
2022-11-26T04:47:06.322Z,4.93
2022-11-26T04:49:56.114Z,5.28
2022-11-26T04:52:59.482Z,4.90
2022-11-26T04:55:53.911Z,4.72
2022-11-26T04:58:46.337Z,5.43
2022-11-26T05:01:51.608Z,4.72
2022-11-26T05:04:42.222Z,5.60
2022-11-26T05:07:31.904Z,4.75
2022-11-26T05:10:21.619Z,4.75
2022-11-26T05:16:45.992Z,5.07
2022-11-26T05:19:36.390Z,4.80
2022-11-26T05:22:24.429Z,5.40
2022-11-26T05:25:12.745Z,4.88
2022-11-26T05:28:08.493Z,4.90
2022-11-26T05:31:09.095Z,4.50
2022-11-26T05:33:56.680Z,5.65
2022-11-26T05:36:48.872Z,5.35
2022-11-26T05:39:52.945Z,5.20
2022-11-26T05:42:41.598Z,5.10
2022-11-26T05:45:30.935Z,5.63
2022-11-26T05:48:20.255Z,4.80
2022-11-26T05:51:10.324Z,5.43
2022-11-26T05:53:59.357Z,4.88
2022-11-26T05:56:59.776Z,5.80
2022-11-26T05:59:58.318Z,5.00
2022-11-26T06:02:47.559Z,4.78
2022-11-26T06:05:35.338Z,5.18
2022-11-26T06:08:23.313Z,4.93
2022-11-26T06:11:15.353Z,4.60
2022-11-26T06:14:05.728Z,5.07
2022-11-26T06:20:27.157Z,4.43
2022-11-26T06:23:15.326Z,5.88
2022-11-26T06:26:09.038Z,4.60
2022-11-26T06:28:58.194Z,4.63
2022-11-26T06:35:08.137Z,5.07
2022-11-26T06:37:55.943Z,4.32
2022-11-26T06:40:43.866Z,4.45
2022-11-26T06:43:32.878Z,4.53
2022-11-26T06:46:23.431Z,4.25
2022-11-26T06:49:13.294Z,4.47
2022-11-26T06:52:30.246Z,4.78
2022-11-26T06:55:35.082Z,5.00
2022-11-26T06:58:40.369Z,4.88
2022-11-26T07:01:34.183Z,4.80
2022-11-26T07:04:22.135Z,4.53
2022-11-26T07:07:10.308Z,4.18
2022-11-26T07:09:58.218Z,4.70
2022-11-26T07:12:48.247Z,4.43
2022-11-26T07:15:38.684Z,4.57
2022-11-26T07:18:39.975Z,4.15
2022-11-26T07:21:29.388Z,4.10
2022-11-26T07:24:22.631Z,4.28
2022-11-26T07:29:58.204Z,4.20
2022-11-26T07:32:46.217Z,4.35
2022-11-26T07:35:45.757Z,4.40
2022-11-26T07:38:37.856Z,4.85
2022-11-26T07:41:41.860Z,4.53
2022-11-26T07:44:35.218Z,4.40
2022-11-26T07:47:31.738Z,3.88
2022-11-26T07:50:21.305Z,4.03
2022-11-26T07:53:13.261Z,4.22
2022-11-26T07:56:01.040Z,3.63
2022-11-26T07:58:49.201Z,3.90
2022-11-26T08:01:38.698Z,3.97
2022-11-26T08:04:29.365Z,3.92
2022-11-26T08:07:23.348Z,4.10
2022-11-26T08:10:17.067Z,3.97
2022-11-26T08:13:05.034Z,4.10
2022-11-26T08:15:52.803Z,4.30
2022-11-26T08:18:44.222Z,6.50
2022-11-26T08:21:31.959Z,4.75
2022-11-26T08:24:22.698Z,3.75
2022-11-26T08:27:14.284Z,3.95
2022-11-26T08:30:05.182Z,4.00
2022-11-26T08:32:52.784Z,4.22
2022-11-26T08:36:05.589Z,4.45
2022-11-26T08:38:48.373Z,7.68
2022-11-26T08:41:36.291Z,4.25
2022-11-26T08:44:27.817Z,6.70
2022-11-26T08:47:15.862Z,5.25
2022-11-26T08:50:04.096Z,3.90
2022-11-26T08:53:01.910Z,3.70
2022-11-26T08:56:00.192Z,5.78
2022-11-26T08:58:49.315Z,4.05
2022-11-26T09:01:38.748Z,5.57
2022-11-26T09:04:28.053Z,4.25
2022-11-26T09:07:19.911Z,3.60
2022-11-26T09:10:09.145Z,4.53
2022-11-26T09:12:56.872Z,4.43
2022-11-26T09:15:44.589Z,5.13
2022-11-26T09:18:34.268Z,5.10
2022-11-26T09:21:22.726Z,5.53
2022-11-26T09:24:10.912Z,5.88
2022-11-26T09:27:02.781Z,5.88
2022-11-26T09:29:54.162Z,6.30
2022-11-26T09:32:44.200Z,6.10
2022-11-26T09:35:34.797Z,6.18
2022-11-26T09:38:23.564Z,6.78
2022-11-26T09:41:27.797Z,6.22
2022-11-26T09:44:42.808Z,6.72
2022-11-26T09:47:38.262Z,7.18
2022-11-26T09:50:31.757Z,5.88
2022-11-26T09:53:25.507Z,6.43
2022-11-26T09:56:25.517Z,6.70
2022-11-26T09:59:18.584Z,6.50
2022-11-26T10:02:13.244Z,6.32
2022-11-26T10:05:01.549Z,6.40
2022-11-26T10:07:59.592Z,7.10
2022-11-26T10:10:57.819Z,6.88
2022-11-26T10:14:01.942Z,7.68
2022-11-26T10:17:03.147Z,6.75
2022-11-26T10:20:04.922Z,7.40
2022-11-26T10:22:59.520Z,8.05
2022-11-26T10:25:55.823Z,9.15
2022-11-26T10:28:47.244Z,8.38
2022-11-26T10:31:41.952Z,8.40
2022-11-26T10:34:39.313Z,8.65
2022-11-26T10:37:30.660Z,8.43
2022-11-26T10:40:24.508Z,11.18
2022-11-26T10:43:19.988Z,8.00
2022-11-26T10:46:08.016Z,8.27
2022-11-26T10:48:55.913Z,7.82
2022-11-26T10:51:49.195Z,7.18
2022-11-26T10:57:34.803Z,7.28
2022-11-26T11:00:35.037Z,7.05
2022-11-26T11:03:59.776Z,7.32
2022-11-26T11:06:42.586Z,7.20
2022-11-26T11:09:33.626Z,7.50
2022-11-26T11:12:23.759Z,7.28
2022-11-26T11:15:25.150Z,7.28
2022-11-26T11:18:33.577Z,8.27
2022-11-26T11:21:22.679Z,8.05
2022-11-26T11:24:16.606Z,6.50
2022-11-26T11:27:04.362Z,7.50
2022-11-26T11:29:52.937Z,6.57
2022-11-26T11:32:44.509Z,7.05
2022-11-26T11:35:35.667Z,7.75
2022-11-26T11:38:27.923Z,8.57
2022-11-26T11:41:26.114Z,7.65
2022-11-26T11:44:18.614Z,9.57
2022-11-26T11:47:37.302Z,8.13
2022-11-26T11:50:32.649Z,8.02
2022-11-26T11:53:35.383Z,8.00
2022-11-26T11:56:29.768Z,8.75
2022-11-26T11:59:59.707Z,7.93
2022-11-26T12:03:09.314Z,7.22
2022-11-26T12:06:13.793Z,7.93
2022-11-26T12:09:17.483Z,8.00
2022-11-26T12:12:13.677Z,7.72
2022-11-26T12:15:09.220Z,7.82
2022-11-26T12:18:02.588Z,8.00
2022-11-26T12:20:55.232Z,8.65
2022-11-26T12:23:50.728Z,8.10
2022-11-26T12:26:48.374Z,8.30
2022-11-26T12:29:42.927Z,8.55
2022-11-26T12:32:40.085Z,9.23
2022-11-26T12:35:35.203Z,8.20
2022-11-26T12:38:31.168Z,8.10
2022-11-26T12:41:25.565Z,8.27
2022-11-26T12:44:37.289Z,7.32
2022-11-26T12:47:32.871Z,8.38
2022-11-26T12:50:35.272Z,8.00
2022-11-26T12:53:35.174Z,8.40
2022-11-26T12:56:31.573Z,8.43
2022-11-26T12:59:27.555Z,7.53
2022-11-26T13:02:21.575Z,8.38
2022-11-26T13:05:16.232Z,8.35
2022-11-26T13:08:26.058Z,8.00
2022-11-26T13:11:27.487Z,8.50
2022-11-26T13:14:26.448Z,8.27
2022-11-26T13:17:21.499Z,7.80
2022-11-26T13:20:24.386Z,7.78
2022-11-26T13:23:26.288Z,7.47
2022-11-26T13:26:45.456Z,7.57
2022-11-26T13:29:59.534Z,7.28
2022-11-26T13:33:20.151Z,7.72
2022-11-26T13:36:37.681Z,7.07
2022-11-26T13:39:51.202Z,7.57
2022-11-26T13:46:10.459Z,8.48
2022-11-26T13:49:02.899Z,7.70
2022-11-26T13:51:56.982Z,7.82
2022-11-26T13:54:50.985Z,7.10
2022-11-26T13:57:44.317Z,8.32
2022-11-26T14:00:34.472Z,7.15
2022-11-26T14:03:45.972Z,7.22
2022-11-26T14:06:33.805Z,7.82
2022-11-26T14:09:49.808Z,8.07
2022-11-26T14:13:12.626Z,8.18
2022-11-26T14:16:04.852Z,8.45
2022-11-26T14:19:00.508Z,7.65
2022-11-26T14:22:06.213Z,7.20
2022-11-26T14:25:00.034Z,7.72
2022-11-26T14:27:55.603Z,7.35
2022-11-26T14:30:45.847Z,7.40
2022-11-26T14:33:36.096Z,6.72
2022-11-26T14:36:27.723Z,6.95
2022-11-26T14:39:17.067Z,7.95
2022-11-26T14:42:06.607Z,7.50
2022-11-26T14:45:05.651Z,7.32
2022-11-26T14:47:55.984Z,7.22
2022-11-26T14:50:45.417Z,7.55
2022-11-26T14:53:35.879Z,7.43
2022-11-26T14:56:26.303Z,7.38
2022-11-26T14:59:18.784Z,7.35
2022-11-26T15:02:22.778Z,6.82
2022-11-26T15:05:17.265Z,7.43
2022-11-26T15:08:07.164Z,7.60
2022-11-26T15:11:18.700Z,7.18
2022-11-26T15:14:23.987Z,6.70
2022-11-26T15:17:16.752Z,6.57
2022-11-26T15:20:12.347Z,6.30
2022-11-26T15:23:03.634Z,6.45
2022-11-26T15:25:55.853Z,6.70
2022-11-26T15:28:45.583Z,6.70
2022-11-26T15:31:43.517Z,7.28
2022-11-26T15:34:33.256Z,6.95
2022-11-26T15:37:21.680Z,7.00
2022-11-26T15:40:20.088Z,7.38
2022-11-26T15:43:18.427Z,6.43
2022-11-26T15:46:16.213Z,6.60
2022-11-26T15:49:07.500Z,6.28
2022-11-26T15:52:00.861Z,6.72
2022-11-26T15:55:11.956Z,7.78
2022-11-26T15:58:03.843Z,7.07
2022-11-26T16:00:55.577Z,6.75
2022-11-26T16:03:47.051Z,7.35
2022-11-26T16:06:37.108Z,7.00
2022-11-26T16:09:28.127Z,7.43
2022-11-26T16:12:31.492Z,7.78
2022-11-26T16:15:35.307Z,7.60
2022-11-26T16:18:26.574Z,7.60
2022-11-26T16:21:22.220Z,7.38
2022-11-26T16:24:27.095Z,7.03
2022-11-26T16:27:29.849Z,7.53
2022-11-26T16:30:21.210Z,6.82
2022-11-26T16:33:09.454Z,7.57
2022-11-26T16:36:00.328Z,6.68
2022-11-26T16:39:11.866Z,6.65
2022-11-26T16:41:59.834Z,6.78
2022-11-26T16:44:48.116Z,6.25
2022-11-26T16:47:39.431Z,6.13
2022-11-26T16:50:28.634Z,6.10
2022-11-26T16:53:16.310Z,6.78
2022-11-26T16:56:06.463Z,6.07
2022-11-26T16:58:55.013Z,6.47
2022-11-26T17:01:45.639Z,6.75
2022-11-26T17:04:33.554Z,6.07
2022-11-26T17:07:24.481Z,6.75
2022-11-26T17:13:57.561Z,6.50
2022-11-26T17:16:45.274Z,6.90
2022-11-26T17:19:33.493Z,6.95
2022-11-26T17:22:21.433Z,6.60
2022-11-26T17:25:10.566Z,7.03
2022-11-26T17:27:58.597Z,6.93
2022-11-26T17:30:48.015Z,6.95
2022-11-26T17:33:36.253Z,7.32
2022-11-26T17:36:24.754Z,7.45
2022-11-26T17:39:13.057Z,7.00
2022-11-26T17:42:00.857Z,7.18
2022-11-26T17:44:49.230Z,7.78
2022-11-26T17:47:38.778Z,7.15
2022-11-26T17:50:28.649Z,7.13
2022-11-26T17:53:16.653Z,7.25
2022-11-26T17:56:04.603Z,8.20
2022-11-26T17:59:04.540Z,7.93
2022-11-26T18:01:52.569Z,7.40
2022-11-26T18:04:41.803Z,7.90
2022-11-26T18:07:29.550Z,7.25
2022-11-26T18:10:22.391Z,7.97
2022-11-26T18:13:10.788Z,7.80
2022-11-26T18:16:02.335Z,7.90
2022-11-26T18:18:50.637Z,8.60
2022-11-26T18:21:40.396Z,10.27
2022-11-26T18:24:28.201Z,8.10
2022-11-26T18:27:23.604Z,7.63
2022-11-26T18:30:12.372Z,7.50
2022-11-26T18:33:01.952Z,8.73
2022-11-26T18:35:52.531Z,8.13
2022-11-26T18:38:44.926Z,8.20
2022-11-26T18:41:32.998Z,8.33
2022-11-26T18:44:20.897Z,7.72
2022-11-26T18:47:09.448Z,7.68
2022-11-26T18:49:57.732Z,8.57
2022-11-26T18:52:45.897Z,7.82
2022-11-26T18:55:40.529Z,9.35
2022-11-26T18:58:28.561Z,8.18
2022-11-26T19:01:24.659Z,8.70
2022-11-26T19:04:13.139Z,8.20
2022-11-26T19:07:00.963Z,8.35
2022-11-26T19:09:49.233Z,8.68
2022-11-26T19:12:48.915Z,8.98
2022-11-26T19:15:43.136Z,8.40
2022-11-26T19:21:34.477Z,9.35
2022-11-26T19:24:22.617Z,9.05
2022-11-26T19:27:13.843Z,8.82
2022-11-26T19:30:04.396Z,9.35
2022-11-26T19:32:54.517Z,9.70
2022-11-26T19:35:43.964Z,8.85
2022-11-26T19:38:35.938Z,10.32
2022-11-26T19:41:25.823Z,9.13
2022-11-26T19:44:16.404Z,10.18
2022-11-26T19:47:06.825Z,9.88
2022-11-26T19:49:54.901Z,10.18
2022-11-26T19:52:47.921Z,9.82
2022-11-26T19:58:27.156Z,10.10
2022-11-26T20:01:23.114Z,11.18
2022-11-26T20:04:17.487Z,12.07
2022-11-26T20:07:05.085Z,11.80
2022-11-26T20:09:53.407Z,12.05
2022-11-26T20:12:42.012Z,11.98
2022-11-26T20:15:43.512Z,11.10
2022-11-26T20:18:31.308Z,11.98
2022-11-26T20:21:22.397Z,11.30
2022-11-26T20:24:20.042Z,11.95
2022-11-26T20:27:10.687Z,12.80
2022-11-26T20:30:06.856Z,12.40
2022-11-26T20:32:56.327Z,11.35
2022-11-26T20:35:48.029Z,12.18
2022-11-26T20:38:38.801Z,11.43
2022-11-26T20:41:29.216Z,12.10
2022-11-26T20:44:29.195Z,13.10
2022-11-26T20:47:19.918Z,12.45
2022-11-26T20:50:12.269Z,11.85
2022-11-26T20:53:00.191Z,11.98
2022-11-26T20:55:58.864Z,12.20
2022-11-26T20:59:04.205Z,12.52
2022-11-26T21:01:58.226Z,11.73
2022-11-26T21:04:48.339Z,11.65
2022-11-26T21:07:36.422Z,11.95
2022-11-26T21:10:30.833Z,11.27
2022-11-26T21:13:37.902Z,11.95
2022-11-26T21:16:25.875Z,10.77
2022-11-26T21:19:15.046Z,12.25
2022-11-26T21:22:04.672Z,10.30
2022-11-26T21:24:55.739Z,10.65
2022-11-26T21:27:52.919Z,10.88
2022-11-26T21:30:44.937Z,11.70
2022-11-26T21:33:34.750Z,10.85
2022-11-26T21:36:25.945Z,11.68
2022-11-26T21:39:16.942Z,11.55
2022-11-26T21:42:13.699Z,11.20
2022-11-26T21:45:01.709Z,10.60
2022-11-26T21:47:55.435Z,10.65
2022-11-26T21:50:43.416Z,9.98
2022-11-26T21:53:31.793Z,10.43
2022-11-26T21:56:27.240Z,10.98
2022-11-26T21:59:15.503Z,10.75
2022-11-26T22:02:05.207Z,10.80
2022-11-26T22:04:54.469Z,10.30
2022-11-26T22:07:42.830Z,10.18
2022-11-26T22:10:35.937Z,10.52
2022-11-26T22:13:24.207Z,11.02
2022-11-26T22:16:13.632Z,11.18
2022-11-26T22:19:02.391Z,11.00
2022-11-26T22:21:53.350Z,10.98
2022-11-26T22:25:01.762Z,11.30
2022-11-26T22:27:49.828Z,11.45
2022-11-26T22:31:10.652Z,9.95
2022-11-26T22:34:02.599Z,10.65
2022-11-26T22:36:57.875Z,10.45
2022-11-26T22:39:52.450Z,10.25
2022-11-26T22:42:42.368Z,10.52
2022-11-26T22:46:10.720Z,9.98
2022-11-26T22:49:01.504Z,10.35
2022-11-26T22:51:56.907Z,9.98
2022-11-26T22:54:46.037Z,12.05
2022-11-26T23:01:20.323Z,10.50
2022-11-26T23:04:10.112Z,10.65
2022-11-26T23:06:58.253Z,10.20
2022-11-26T23:09:54.581Z,13.75
2022-11-26T23:16:15.073Z,9.73
2022-11-26T23:19:07.228Z,10.63
2022-11-26T23:21:55.020Z,9.68
2022-11-26T23:25:30.565Z,10.02
2022-11-26T23:29:05.519Z,10.15
2022-11-26T23:31:58.272Z,10.43
2022-11-26T23:34:48.198Z,9.82
2022-11-26T23:37:36.077Z,10.55
2022-11-26T23:40:41.774Z,10.18
2022-11-26T23:43:30.276Z,10.55
2022-11-26T23:46:34.241Z,10.32
2022-11-26T23:49:47.776Z,10.90
2022-11-26T23:52:40.364Z,10.45
2022-11-26T23:56:02.993Z,9.30
2022-11-26T23:58:51.686Z,10.95
